createdAt,value
2022-09-15T00:01:00.983Z,1.65
2022-09-15T00:03:28.694Z,1.92
2022-09-15T00:05:56.071Z,1.70
2022-09-15T00:08:24.293Z,1.50
2022-09-15T00:10:53.834Z,1.80
2022-09-15T00:13:22.230Z,2.08
2022-09-15T00:15:49.235Z,2.03
2022-09-15T00:18:16.370Z,2.20
2022-09-15T00:20:44.979Z,1.80
2022-09-15T00:23:14.950Z,2.00
2022-09-15T00:25:50.444Z,2.30
2022-09-15T00:28:19.398Z,1.85
2022-09-15T00:30:49.507Z,2.70
2022-09-15T00:33:17.652Z,2.47
2022-09-15T00:35:46.229Z,2.53
2022-09-15T00:38:14.498Z,1.80
2022-09-15T00:40:54.122Z,2.60
2022-09-15T00:43:41.417Z,2.00
2022-09-15T00:46:09.375Z,2.05
2022-09-15T00:48:40.456Z,2.72
2022-09-15T00:51:10.296Z,2.47
2022-09-15T00:53:37.830Z,2.63
2022-09-15T00:56:07.330Z,2.75
2022-09-15T00:58:43.148Z,2.67
2022-09-15T01:01:11.061Z,3.03
2022-09-15T01:03:38.262Z,2.17
2022-09-15T01:06:31.605Z,2.83
2022-09-15T01:09:01.701Z,2.90
2022-09-15T01:11:29.505Z,2.83
2022-09-15T01:13:56.860Z,2.83
2022-09-15T01:16:47.973Z,3.20
2022-09-15T01:19:33.746Z,3.35
2022-09-15T01:22:20.268Z,3.42
2022-09-15T01:25:03.558Z,3.60
2022-09-15T01:27:49.002Z,3.90
2022-09-15T01:30:20.039Z,3.25
2022-09-15T01:33:14.961Z,3.67
2022-09-15T01:36:05.627Z,3.00
2022-09-15T01:39:02.587Z,3.08
2022-09-15T01:41:45.277Z,2.72
2022-09-15T01:44:34.773Z,2.92
2022-09-15T01:47:06.640Z,2.85
2022-09-15T01:49:59.360Z,2.90
2022-09-15T01:52:26.518Z,2.60
2022-09-15T01:55:00.532Z,2.55
2022-09-15T01:57:27.705Z,2.85
2022-09-15T01:59:56.332Z,2.70
2022-09-15T02:02:46.526Z,3.97
2022-09-15T02:05:25.479Z,2.25
2022-09-15T02:08:45.439Z,2.85
2022-09-15T02:11:19.799Z,2.75
2022-09-15T02:14:03.204Z,2.70
2022-09-15T02:16:36.038Z,2.55
2022-09-15T02:19:31.784Z,2.40
2022-09-15T02:22:24.603Z,2.15
2022-09-15T02:25:14.242Z,2.22
2022-09-15T02:27:47.801Z,2.08
2022-09-15T02:30:16.658Z,1.73
2022-09-15T02:32:54.315Z,1.88
2022-09-15T02:35:22.533Z,2.03
2022-09-15T02:37:50.664Z,2.28
2022-09-15T02:40:17.957Z,1.67
2022-09-15T02:42:57.162Z,1.85
2022-09-15T02:45:25.857Z,1.85
2022-09-15T02:47:53.073Z,1.50
2022-09-15T02:50:20.583Z,1.92
2022-09-15T02:52:47.732Z,1.67
2022-09-15T02:55:16.028Z,1.88
2022-09-15T02:57:43.039Z,1.90
2022-09-15T03:00:15.269Z,2.03
2022-09-15T03:02:45.743Z,1.73
2022-09-15T03:05:15.207Z,1.85
2022-09-15T03:07:42.575Z,1.67
2022-09-15T03:10:12.055Z,1.65
2022-09-15T03:12:44.387Z,1.85
2022-09-15T03:15:13.148Z,1.70
2022-09-15T03:17:42.263Z,2.28
2022-09-15T03:20:11.317Z,1.90
2022-09-15T03:22:39.335Z,2.00
2022-09-15T03:25:07.439Z,2.50
2022-09-15T03:27:35.598Z,2.15
2022-09-15T03:30:03.101Z,2.22
2022-09-15T03:32:30.278Z,2.28
2022-09-15T03:34:58.459Z,2.30
2022-09-15T03:37:26.056Z,2.38
2022-09-15T03:39:53.305Z,2.10
2022-09-15T03:42:20.557Z,2.63
2022-09-15T03:44:47.654Z,2.05
2022-09-15T03:47:14.753Z,1.92
2022-09-15T03:49:41.844Z,2.50
2022-09-15T03:52:08.896Z,2.15
2022-09-15T03:54:36.029Z,2.03
2022-09-15T03:57:03.535Z,1.98
2022-09-15T03:59:30.741Z,2.60
2022-09-15T04:01:57.756Z,2.20
2022-09-15T04:04:24.837Z,1.90
2022-09-15T04:06:51.803Z,3.70
2022-09-15T04:09:20.402Z,2.85
2022-09-15T04:11:48.018Z,2.30
2022-09-15T04:14:15.762Z,2.60
2022-09-15T04:16:42.957Z,3.00
2022-09-15T04:19:10.047Z,2.30
2022-09-15T04:21:37.180Z,2.40
2022-09-15T04:24:06.003Z,2.40
2022-09-15T04:26:36.512Z,3.33
2022-09-15T04:29:05.558Z,2.72
2022-09-15T04:31:33.847Z,2.38
2022-09-15T04:34:02.363Z,2.28
2022-09-15T04:36:30.286Z,2.35
2022-09-15T04:38:58.298Z,2.53
2022-09-15T04:41:26.406Z,2.17
2022-09-15T04:43:53.831Z,3.58
2022-09-15T04:46:21.212Z,1.80
2022-09-15T04:48:49.069Z,1.67
2022-09-15T04:51:21.523Z,1.60
2022-09-15T04:53:49.083Z,1.65
2022-09-15T04:56:18.843Z,1.95
2022-09-15T04:58:48.584Z,1.90
2022-09-15T05:01:21.574Z,2.47
2022-09-15T05:03:49.265Z,1.95
2022-09-15T05:06:19.134Z,1.92
2022-09-15T05:08:54.091Z,1.38
2022-09-15T05:11:21.853Z,1.80
2022-09-15T05:13:49.285Z,2.08
2022-09-15T05:16:19.543Z,2.28
2022-09-15T05:18:48.609Z,2.30
2022-09-15T05:21:18.276Z,1.70
2022-09-15T05:23:45.514Z,1.23
2022-09-15T05:26:15.158Z,1.73
2022-09-15T05:28:42.474Z,2.53
2022-09-15T05:31:18.047Z,1.83
2022-09-15T05:33:46.297Z,1.13
2022-09-15T05:36:15.165Z,1.38
2022-09-15T05:38:42.614Z,1.60
2022-09-15T05:41:17.057Z,1.55
2022-09-15T05:43:45.661Z,2.00
2022-09-15T05:46:14.033Z,1.70
2022-09-15T05:48:42.050Z,1.58
2022-09-15T05:51:09.330Z,1.60
2022-09-15T05:53:36.959Z,1.65
2022-09-15T05:56:07.423Z,1.63
2022-09-15T05:58:35.017Z,1.55
2022-09-15T06:01:08.020Z,1.83
2022-09-15T06:03:36.115Z,1.67
2022-09-15T06:06:05.010Z,1.70
2022-09-15T06:08:44.040Z,1.60
2022-09-15T06:11:16.916Z,1.67
2022-09-15T06:13:45.595Z,1.48
2022-09-15T06:16:19.549Z,1.88
2022-09-15T06:18:48.318Z,1.70
2022-09-15T06:21:18.441Z,1.50
2022-09-15T06:23:53.582Z,1.85
2022-09-15T06:26:21.190Z,2.25
2022-09-15T06:28:51.029Z,1.45
2022-09-15T06:31:18.877Z,1.52
2022-09-15T06:33:51.534Z,1.77
2022-09-15T06:36:20.410Z,1.67
2022-09-15T06:38:48.200Z,1.73
2022-09-15T06:41:16.096Z,1.95
2022-09-15T06:43:43.606Z,2.33
2022-09-15T06:46:13.656Z,2.25
2022-09-15T06:48:42.264Z,2.38
2022-09-15T06:51:13.217Z,2.17
2022-09-15T06:53:40.659Z,2.10
2022-09-15T06:56:10.461Z,2.75
2022-09-15T06:58:39.701Z,2.33
2022-09-15T07:01:13.005Z,2.55
2022-09-15T07:03:43.649Z,2.95
2022-09-15T07:06:14.926Z,2.63
2022-09-15T07:08:42.512Z,1.88
2022-09-15T07:11:10.364Z,2.35
2022-09-15T07:13:38.151Z,2.10
2022-09-15T07:16:07.832Z,2.40
2022-09-15T07:18:39.717Z,1.85
2022-09-15T07:21:13.300Z,1.50
2022-09-15T07:23:40.907Z,1.70
2022-09-15T07:26:20.393Z,1.60
2022-09-15T07:28:50.794Z,1.65
2022-09-15T07:31:20.622Z,1.60
2022-09-15T07:33:48.113Z,1.58
2022-09-15T07:36:15.448Z,1.55
2022-09-15T07:38:45.342Z,1.92
2022-09-15T07:41:16.583Z,2.25
2022-09-15T07:43:48.538Z,2.33
2022-09-15T07:46:16.848Z,2.45
2022-09-15T07:48:48.534Z,1.98
2022-09-15T07:51:16.696Z,1.50
2022-09-15T07:53:45.376Z,1.65
2022-09-15T07:56:13.045Z,1.35
2022-09-15T07:58:40.206Z,2.30
2022-09-15T08:01:11.791Z,0.68
2022-09-15T08:03:52.015Z,0.75
2022-09-15T08:06:21.723Z,0.75
2022-09-15T08:08:50.372Z,0.90
2022-09-15T08:11:19.565Z,0.70
2022-09-15T08:13:48.256Z,0.43
2022-09-15T08:16:18.191Z,0.50
2022-09-15T08:18:45.618Z,0.60
2022-09-15T08:21:17.187Z,0.45
2022-09-15T08:23:45.321Z,0.88
2022-09-15T08:26:14.288Z,0.55
2022-09-15T08:28:42.167Z,0.40
2022-09-15T08:31:11.816Z,0.45
2022-09-15T08:33:44.621Z,0.60
2022-09-15T08:36:12.937Z,0.40
2022-09-15T08:38:42.159Z,0.40
2022-09-15T08:41:32.296Z,0.63
2022-09-15T08:44:30.433Z,0.30
2022-09-15T08:47:01.115Z,0.70
2022-09-15T08:49:51.454Z,0.50
2022-09-15T08:52:48.735Z,0.50
2022-09-15T08:55:39.009Z,0.60
2022-09-15T08:58:07.235Z,0.57
2022-09-15T09:00:35.050Z,0.50
2022-09-15T09:03:39.731Z,0.60
2022-09-15T09:06:28.623Z,0.30
2022-09-15T09:09:18.619Z,0.40
2022-09-15T09:12:13.321Z,0.73
2022-09-15T09:15:06.762Z,1.10
2022-09-15T09:17:51.515Z,0.75
2022-09-15T09:20:48.335Z,0.35
2022-09-15T09:23:19.524Z,0.40
2022-09-15T09:25:47.365Z,0.38
2022-09-15T09:28:38.141Z,0.52
2022-09-15T09:31:11.235Z,0.65
2022-09-15T09:33:48.164Z,0.65
2022-09-15T09:36:15.364Z,0.40
2022-09-15T09:38:45.937Z,0.68
2022-09-15T09:41:19.672Z,0.70
2022-09-15T09:43:48.873Z,0.60
2022-09-15T09:46:18.768Z,0.50
2022-09-15T09:49:02.941Z,0.50
2022-09-15T09:51:53.612Z,0.60
2022-09-15T09:54:26.142Z,0.43
2022-09-15T09:56:54.909Z,0.65
2022-09-15T09:59:37.316Z,0.68
2022-09-15T10:02:19.238Z,0.65
2022-09-15T10:04:50.630Z,1.00
2022-09-15T10:07:22.280Z,1.20
2022-09-15T10:09:58.327Z,0.70
2022-09-15T10:12:41.855Z,1.00
2022-09-15T10:15:29.050Z,0.80
2022-09-15T10:17:57.126Z,0.77
2022-09-15T10:20:35.606Z,1.40
2022-09-15T10:23:17.821Z,1.52
2022-09-15T10:26:00.790Z,1.40
2022-09-15T10:28:28.387Z,1.35
2022-09-15T10:31:08.525Z,1.52
2022-09-15T10:33:42.843Z,2.22
2022-09-15T10:36:33.165Z,1.35
2022-09-15T10:39:21.738Z,1.73
2022-09-15T10:42:08.904Z,2.13
2022-09-15T10:44:58.050Z,2.10
2022-09-15T10:47:43.449Z,2.72
2022-09-15T10:50:32.289Z,3.35
2022-09-15T10:53:17.927Z,2.85
2022-09-15T10:56:22.227Z,3.97
2022-09-15T10:59:12.147Z,3.78
2022-09-15T11:02:02.814Z,4.82
2022-09-15T11:04:49.441Z,3.67
2022-09-15T11:07:30.785Z,4.15
2022-09-15T11:10:08.981Z,3.55
2022-09-15T11:12:38.723Z,3.88
2022-09-15T11:15:19.818Z,3.70
2022-09-15T11:18:15.604Z,4.35
2022-09-15T11:21:01.153Z,4.07
2022-09-15T11:23:34.834Z,4.72
2022-09-15T11:26:17.514Z,4.53
2022-09-15T11:28:51.031Z,4.53
2022-09-15T11:31:30.273Z,4.38
2022-09-15T11:34:30.255Z,4.13
2022-09-15T11:37:11.220Z,4.53
2022-09-15T11:40:04.443Z,4.60
2022-09-15T11:42:42.037Z,3.55
2022-09-15T11:45:20.852Z,4.93
2022-09-15T11:47:52.970Z,4.55
2022-09-15T11:50:25.072Z,4.32
2022-09-15T11:53:25.752Z,4.85
2022-09-15T11:56:00.257Z,4.72
2022-09-15T11:58:54.257Z,3.63
2022-09-15T12:01:26.111Z,3.13
2022-09-15T12:04:13.647Z,3.53
2022-09-15T12:06:45.719Z,3.60
2022-09-15T12:09:16.668Z,3.60
2022-09-15T12:11:47.595Z,3.13
2022-09-15T12:14:24.064Z,3.65
2022-09-15T12:16:52.378Z,3.78
2022-09-15T12:19:43.459Z,4.50
2022-09-15T12:22:24.453Z,3.97
2022-09-15T12:25:21.136Z,4.25
2022-09-15T12:28:22.156Z,4.55
2022-09-15T12:31:08.395Z,3.70
2022-09-15T12:33:57.012Z,3.85
2022-09-15T12:36:45.311Z,4.43
2022-09-15T12:39:36.634Z,4.00
2022-09-15T12:42:08.892Z,4.93
2022-09-15T12:44:44.697Z,5.28
2022-09-15T12:47:31.872Z,4.30
2022-09-15T12:50:04.812Z,4.15
2022-09-15T12:52:40.866Z,3.70
2022-09-15T12:55:19.374Z,3.65
2022-09-15T12:57:58.918Z,2.35
2022-09-15T13:00:32.684Z,2.58
2022-09-15T13:03:01.906Z,2.58
2022-09-15T13:05:46.220Z,2.28
2022-09-15T13:08:33.527Z,2.45
2022-09-15T13:11:02.252Z,4.13
2022-09-15T13:13:47.614Z,3.50
2022-09-15T13:16:19.731Z,3.55
2022-09-15T13:18:48.686Z,3.00
2022-09-15T13:21:22.331Z,3.25
2022-09-15T13:23:54.443Z,4.03
2022-09-15T13:26:25.714Z,4.07
2022-09-15T13:28:56.341Z,4.32
2022-09-15T13:31:55.005Z,5.47
2022-09-15T13:38:12.251Z,4.22
2022-09-15T13:40:59.462Z,4.65
2022-09-15T13:43:29.107Z,4.50
2022-09-15T13:46:13.984Z,4.63
2022-09-15T13:48:56.254Z,3.67
2022-09-15T13:51:29.223Z,4.25
2022-09-15T13:54:16.320Z,4.35
2022-09-15T13:56:45.584Z,4.00
2022-09-15T13:59:18.944Z,4.45
2022-09-15T14:01:46.445Z,5.07
2022-09-15T14:04:24.549Z,5.00
2022-09-15T14:07:00.237Z,4.75
2022-09-15T14:09:33.304Z,4.43
2022-09-15T14:12:10.516Z,4.22
2022-09-15T14:14:51.598Z,3.97
2022-09-15T14:17:20.934Z,3.95
2022-09-15T14:19:56.394Z,4.80
2022-09-15T14:22:32.398Z,2.17
2022-09-15T14:25:04.900Z,2.22
2022-09-15T14:27:34.991Z,2.50
2022-09-15T14:30:09.161Z,2.28
2022-09-15T14:32:40.037Z,2.40
2022-09-15T14:35:16.021Z,3.25
2022-09-15T14:37:51.179Z,2.78
2022-09-15T14:40:23.934Z,2.53
2022-09-15T14:42:51.506Z,2.90
2022-09-15T14:48:16.345Z,2.75
2022-09-15T14:50:54.501Z,3.65
2022-09-15T14:53:24.157Z,3.03
2022-09-15T14:56:08.742Z,2.67
2022-09-15T14:58:37.058Z,3.13
2022-09-15T15:01:15.944Z,2.80
2022-09-15T15:03:51.709Z,3.05
2022-09-15T15:06:30.064Z,3.50
2022-09-15T15:09:04.368Z,2.80
2022-09-15T15:11:33.326Z,2.78
2022-09-15T15:14:02.464Z,3.13
2022-09-15T15:16:31.464Z,3.28
2022-09-15T15:18:58.564Z,3.45
2022-09-15T15:21:34.255Z,3.70
2022-09-15T15:24:07.289Z,3.58
2022-09-15T15:26:35.591Z,3.35
2022-09-15T15:29:08.572Z,3.28
2022-09-15T15:31:40.161Z,5.93
2022-09-15T15:34:24.321Z,3.60
2022-09-15T15:36:51.330Z,4.00
2022-09-15T15:39:25.440Z,3.85
2022-09-15T15:42:04.215Z,4.22
2022-09-15T15:44:32.008Z,4.28
2022-09-15T15:47:01.750Z,3.97
2022-09-15T15:49:32.453Z,3.90
2022-09-15T15:52:14.853Z,3.78
2022-09-15T15:54:48.036Z,3.85
2022-09-15T15:57:41.247Z,8.00
2022-09-15T16:00:32.912Z,4.30
2022-09-15T16:02:59.839Z,4.53
2022-09-15T16:05:29.287Z,4.50
2022-09-15T16:07:59.444Z,4.53
2022-09-15T16:10:30.795Z,4.53
2022-09-15T16:12:57.749Z,4.68
2022-09-15T16:15:24.712Z,3.88
2022-09-15T16:17:51.745Z,3.90
2022-09-15T16:20:24.531Z,4.18
2022-09-15T16:22:52.424Z,3.97
2022-09-15T16:25:34.344Z,3.80
2022-09-15T16:28:01.845Z,4.10
2022-09-15T16:30:29.052Z,4.57
2022-09-15T16:32:55.989Z,3.70
2022-09-15T16:35:39.554Z,3.80
2022-09-15T16:38:07.454Z,4.40
2022-09-15T16:40:34.687Z,4.10
2022-09-15T16:43:02.015Z,4.32
2022-09-15T16:45:40.555Z,3.97
2022-09-15T16:48:08.842Z,4.22
2022-09-15T16:50:37.836Z,4.00
2022-09-15T16:53:09.114Z,4.13
2022-09-15T16:55:45.716Z,3.75
2022-09-15T16:58:14.367Z,3.88
2022-09-15T17:00:42.369Z,4.07
2022-09-15T17:03:10.700Z,4.45
2022-09-15T17:05:48.310Z,4.88
2022-09-15T17:08:16.907Z,4.82
2022-09-15T17:10:44.471Z,4.60
2022-09-15T17:13:26.461Z,4.78
2022-09-15T17:15:57.841Z,4.35
2022-09-15T17:18:25.030Z,4.93
2022-09-15T17:20:52.721Z,4.55
2022-09-15T17:23:36.924Z,4.35
2022-09-15T17:26:12.808Z,4.70
2022-09-15T17:28:40.983Z,4.65
2022-09-15T17:31:19.567Z,4.63
2022-09-15T17:33:47.929Z,4.82
2022-09-15T17:36:15.679Z,3.88
2022-09-15T17:38:45.214Z,5.30
2022-09-15T17:41:23.176Z,4.40
2022-09-15T17:43:50.182Z,4.88
2022-09-15T17:46:17.333Z,5.40
2022-09-15T17:48:44.966Z,6.63
2022-09-15T17:51:17.758Z,5.35
2022-09-15T17:53:47.043Z,5.43
2022-09-15T17:56:14.832Z,4.82
2022-09-15T17:58:42.751Z,4.72
2022-09-15T18:01:14.392Z,4.68
2022-09-15T18:03:44.246Z,5.18
2022-09-15T18:06:11.591Z,5.15
2022-09-15T18:08:39.785Z,4.60
2022-09-15T18:11:07.375Z,5.15
2022-09-15T18:13:34.732Z,5.20
2022-09-15T18:16:07.942Z,5.03
2022-09-15T18:18:35.017Z,4.95
2022-09-15T18:21:07.230Z,5.45
2022-09-15T18:23:34.186Z,5.05
2022-09-15T18:26:03.265Z,4.75
2022-09-15T18:28:35.681Z,5.05
2022-09-15T18:31:02.805Z,5.63
2022-09-15T18:33:30.774Z,5.60
2022-09-15T18:36:01.721Z,4.93
2022-09-15T18:38:28.967Z,5.28
2022-09-15T18:40:58.190Z,4.90
2022-09-15T18:43:27.331Z,5.28
2022-09-15T18:46:03.427Z,5.30
2022-09-15T18:48:30.541Z,5.43
2022-09-15T18:50:58.972Z,5.93
2022-09-15T18:53:26.225Z,6.40
2022-09-15T18:55:53.160Z,6.75
2022-09-15T18:58:24.220Z,7.97
2022-09-15T19:00:52.052Z,14.07
2022-09-15T19:03:19.048Z,14.85
2022-09-15T19:05:47.052Z,13.90
2022-09-15T19:08:14.011Z,12.27
2022-09-15T19:10:43.926Z,11.05
2022-09-15T19:13:15.720Z,9.52
2022-09-15T19:15:44.212Z,9.40
2022-09-15T19:18:11.450Z,7.15
2022-09-15T19:20:38.438Z,7.05
2022-09-15T19:23:05.602Z,6.47
2022-09-15T19:25:32.934Z,6.57
2022-09-15T19:28:00.090Z,6.88
2022-09-15T19:30:27.231Z,6.78
2022-09-15T19:32:54.303Z,6.88
2022-09-15T19:35:21.863Z,6.72
2022-09-15T19:37:49.145Z,6.80
2022-09-15T19:40:17.674Z,7.20
2022-09-15T19:42:45.227Z,7.70
2022-09-15T19:45:13.581Z,7.07
2022-09-15T19:47:41.662Z,6.95
2022-09-15T19:50:10.045Z,7.28
2022-09-15T19:52:37.273Z,7.82
2022-09-15T19:55:06.840Z,6.93
2022-09-15T19:57:34.025Z,7.55
2022-09-15T20:00:01.034Z,7.47
2022-09-15T20:02:28.242Z,7.70
2022-09-15T20:04:55.177Z,7.15
2022-09-15T20:07:22.227Z,6.75
2022-09-15T20:09:49.298Z,7.05
2022-09-15T20:12:16.598Z,7.25
2022-09-15T20:14:43.536Z,7.20
2022-09-15T20:17:11.085Z,7.22
2022-09-15T20:19:38.330Z,6.82
2022-09-15T20:22:05.533Z,7.28
2022-09-15T20:24:32.498Z,8.02
2022-09-15T20:26:59.806Z,6.63
2022-09-15T20:29:26.773Z,7.88
2022-09-15T20:31:53.968Z,7.22
2022-09-15T20:34:20.893Z,7.35
2022-09-15T20:36:47.843Z,7.55
2022-09-15T20:39:15.726Z,7.32
2022-09-15T20:41:46.720Z,8.68
2022-09-15T20:44:14.282Z,9.57
2022-09-15T20:46:41.487Z,9.05
2022-09-15T20:49:09.432Z,8.85
2022-09-15T20:51:36.699Z,8.88
2022-09-15T20:54:05.049Z,9.93
2022-09-15T20:56:35.300Z,9.20
2022-09-15T20:59:03.434Z,7.88
2022-09-15T21:01:36.860Z,8.88
2022-09-15T21:04:05.798Z,8.57
2022-09-15T21:06:33.362Z,8.55
2022-09-15T21:09:00.587Z,8.50
2022-09-15T21:11:29.164Z,8.07
2022-09-15T21:13:57.284Z,8.20
2022-09-15T21:16:27.914Z,8.98
2022-09-15T21:18:57.455Z,8.68
2022-09-15T21:21:30.358Z,7.78
2022-09-15T21:24:01.875Z,8.45
2022-09-15T21:26:31.171Z,8.40
2022-09-15T21:28:58.308Z,7.75
2022-09-15T21:31:32.335Z,8.50
2022-09-15T21:33:59.987Z,7.65
2022-09-15T21:36:29.802Z,7.93
2022-09-15T21:38:58.315Z,8.07
2022-09-15T21:41:28.283Z,7.85
2022-09-15T21:43:55.724Z,7.75
2022-09-15T21:46:26.715Z,7.72
2022-09-15T21:48:55.139Z,9.15
2022-09-15T21:51:24.858Z,9.10
2022-09-15T21:53:54.264Z,9.30
2022-09-15T21:56:21.951Z,8.52
2022-09-15T21:58:49.459Z,8.85
2022-09-15T22:01:21.110Z,8.63
2022-09-15T22:03:56.669Z,9.13
2022-09-15T22:06:27.824Z,9.93
2022-09-15T22:08:55.553Z,9.60
2022-09-15T22:11:23.538Z,10.30
2022-09-15T22:13:50.575Z,9.35
2022-09-15T22:16:20.400Z,9.52
2022-09-15T22:18:48.057Z,11.02
2022-09-15T22:21:17.676Z,10.10
2022-09-15T22:23:46.559Z,10.32
2022-09-15T22:26:17.184Z,9.93
2022-09-15T22:28:44.558Z,10.43
2022-09-15T22:31:13.922Z,9.63
2022-09-15T22:33:42.385Z,10.35
2022-09-15T22:36:11.748Z,10.93
2022-09-15T22:38:39.262Z,10.25
2022-09-15T22:41:09.259Z,9.98
2022-09-15T22:43:37.058Z,10.50
2022-09-15T22:46:04.497Z,10.50
2022-09-15T22:48:31.722Z,11.05
2022-09-15T22:50:59.065Z,10.40
2022-09-15T22:53:26.218Z,10.98
2022-09-15T22:56:05.061Z,10.60
2022-09-15T22:58:33.238Z,10.20
2022-09-15T23:01:12.280Z,9.90
2022-09-15T23:03:39.817Z,9.57
2022-09-15T23:06:07.876Z,11.38
2022-09-15T23:08:35.756Z,10.32
2022-09-15T23:11:13.822Z,9.88
2022-09-15T23:13:41.884Z,9.57
2022-09-15T23:16:09.835Z,11.35
2022-09-15T23:18:37.372Z,11.23
2022-09-15T23:21:09.629Z,10.70
2022-09-15T23:23:38.459Z,11.07
2022-09-15T23:26:10.289Z,10.63
2022-09-15T23:28:39.259Z,10.13
2022-09-15T23:31:07.134Z,10.50
2022-09-15T23:33:34.749Z,10.68
2022-09-15T23:36:04.262Z,10.13
2022-09-15T23:38:31.465Z,11.77
2022-09-15T23:40:58.576Z,10.80
2022-09-15T23:43:25.562Z,11.13
2022-09-15T23:45:53.641Z,11.23
2022-09-15T23:48:21.040Z,10.88
2022-09-15T23:50:48.336Z,10.48
2022-09-15T23:53:15.341Z,10.52
2022-09-15T23:55:42.269Z,11.20
2022-09-15T23:58:10.468Z,10.98
